Time;durP1;ratioP1;P1;durP2;ratioP2;P2;SDS_P1;SDS_P2;PMS_P1;PMS_P2;Temp;Humidity;BMP_temperature;BMP_pressure;BME280_temperature;BME280_humidity;BME280_pressure;Samples;Min_cycle;Max_cycle;Signal;HPM_P1;HPM_P2
2022/12/04 00:01:49;;;;;;;66.50;30.40;;;3.80;50.90;;;;;;5013397;28;20389;-75
2022/12/04 00:04:15;;;;;;;55.10;27.87;;;3.80;51.80;;;;;;5013672;28;20404;-75
2022/12/04 00:06:40;;;;;;;58.10;29.30;;;3.70;52.20;;;;;;5013865;28;20384;-75
2022/12/04 00:09:06;;;;;;;55.60;27.27;;;3.70;52.40;;;;;;5013625;28;20387;-76
2022/12/04 00:11:32;;;;;;;55.65;27.92;;;3.80;51.00;;;;;;5013286;28;20393;-74
2022/12/04 00:13:59;;;;;;;57.57;28.60;;;3.70;50.50;;;;;;5012517;28;20562;-75
2022/12/04 00:16:27;;;;;;;57.38;28.35;;;3.70;52.90;;;;;;5013926;28;20389;-75
2022/12/04 00:18:53;;;;;;;60.10;28.70;;;3.70;53.00;;;;;;5012950;28;20435;-74
2022/12/04 00:21:20;;;;;;;58.70;29.55;;;3.80;51.40;;;;;;5011620;28;20412;-74
2022/12/04 00:23:46;;;;;;;58.72;28.67;;;3.70;51.60;;;;;;5013330;28;20401;-75
2022/12/04 00:26:20;;;;;;;58.40;29.07;;;3.70;52.50;;;;;;5013445;28;20385;-75
2022/12/04 00:28:46;;;;;;;55.92;29.15;;;3.70;52.10;;;;;;5013477;28;20742;-75
2022/12/04 00:31:15;;;;;;;54.42;28.35;;;3.80;51.20;;;;;;5012737;28;20380;-75
2022/12/04 00:33:41;;;;;;;60.08;29.42;;;3.80;51.60;;;;;;5019207;28;20385;-75
2022/12/04 00:36:09;;;;;;;56.60;27.97;;;3.80;50.70;;;;;;5015407;28;20396;-75
2022/12/04 00:38:36;;;;;;;53.67;28.05;;;3.80;51.20;;;;;;5013178;28;20392;-74
2022/12/04 00:41:02;;;;;;;56.63;28.40;;;3.80;50.70;;;;;;5012519;28;20388;-76
2022/12/04 00:43:29;;;;;;;56.50;29.13;;;3.70;51.60;;;;;;5012905;28;20872;-75
2022/12/04 00:45:55;;;;;;;54.85;27.58;;;3.70;51.80;;;;;;5012971;28;20408;-74
2022/12/04 00:48:22;;;;;;;56.58;27.60;;;3.80;50.90;;;;;;5012859;28;20443;-75
2022/12/04 00:50:47;;;;;;;59.93;29.17;;;3.80;51.20;;;;;;5012819;28;20381;-75
2022/12/04 00:53:13;;;;;;;53.45;26.85;;;3.70;52.20;;;;;;5012559;28;20878;-75
2022/12/04 00:55:40;;;;;;;55.08;27.55;;;3.70;51.60;;;;;;5013658;28;20426;-76
2022/12/04 00:58:06;;;;;;;65.68;30.75;;;3.70;51.60;;;;;;5013880;28;20459;-75
2022/12/04 01:00:33;;;;;;;55.93;28.10;;;3.70;51.90;;;;;;5028871;28;20458;-74
2022/12/04 01:02:59;;;;;;;57.78;28.85;;;3.70;51.80;;;;;;5018073;28;20431;-74
2022/12/04 01:05:25;;;;;;;53.67;28.13;;;3.70;51.50;;;;;;5014873;28;20854;-75
2022/12/04 01:07:50;;;;;;;52.10;27.20;;;3.60;53.60;;;;;;5016553;28;20380;-76
2022/12/04 01:10:16;;;;;;;57.45;27.40;;;3.70;52.70;;;;;;5015092;28;20446;-75
2022/12/04 01:12:41;;;;;;;51.80;27.40;;;3.80;51.20;;;;;;5012099;28;20413;-75
2022/12/04 01:15:07;;;;;;;51.50;27.08;;;3.90;50.10;;;;;;5012642;28;20393;-74
2022/12/04 01:17:33;;;;;;;53.10;28.20;;;3.80;50.30;;;;;;5012092;28;20396;-74
2022/12/04 01:19:58;;;;;;;54.70;28.20;;;3.80;51.70;;;;;;5012261;28;20761;-74
2022/12/04 01:22:24;;;;;;;52.13;27.57;;;3.80;51.60;;;;;;4993842;28;20399;-74
2022/12/04 01:24:49;;;;;;;52.63;27.27;;;3.70;52.40;;;;;;5012238;28;20408;-75
2022/12/04 01:27:15;;;;;;;52.75;27.52;;;3.80;51.10;;;;;;5012062;28;20398;-76
2022/12/04 01:29:40;;;;;;;58.08;29.48;;;3.70;53.60;;;;;;5011170;28;20389;-75
2022/12/04 01:32:06;;;;;;;54.20;27.90;;;3.70;52.00;;;;;;5011263;28;20401;-75
2022/12/04 01:34:31;;;;;;;54.25;27.50;;;3.70;52.70;;;;;;5011849;28;20377;-74
2022/12/04 01:36:57;;;;;;;51.88;27.02;;;3.80;51.80;;;;;;5015948;28;20427;-74
2022/12/04 01:39:22;;;;;;;55.20;27.23;;;3.90;49.80;;;;;;5042387;28;20400;-75
2022/12/04 01:41:48;;;;;;;58.00;29.17;;;3.80;50.30;;;;;;5022906;28;20396;-75
2022/12/04 01:44:20;;;;;;;53.80;27.23;;;3.80;51.00;;;;;;5020502;28;20408;-73
2022/12/04 01:46:53;;;;;;;53.40;27.63;;;3.90;49.70;;;;;;5014562;28;20400;-74
2022/12/04 01:49:34;;;;;;;57.28;28.73;;;3.80;51.40;;;;;;5011676;28;20392;-74
2022/12/04 01:52:07;;;;;;;52.33;28.30;;;3.80;51.60;;;;;;5010742;28;20394;-73
2022/12/04 01:54:38;;;;;;;56.85;28.58;;;3.80;50.50;;;;;;5011908;28;20451;-74
2022/12/04 01:57:12;;;;;;;55.85;28.77;;;3.80;51.20;;;;;;5011471;28;20396;-74
2022/12/04 02:00:10;;;;;;;56.25;28.38;;;3.70;52.20;;;;;;5011483;28;20443;-75
2022/12/04 02:02:38;;;;;;;53.78;29.58;;;3.80;51.50;;;;;;5008349;28;20404;-75
2022/12/04 02:05:07;;;;;;;58.58;28.30;;;3.70;51.60;;;;;;5011550;28;20423;-75
2022/12/04 02:07:33;;;;;;;56.10;29.10;;;3.70;51.80;;;;;;5011367;28;20442;-74
2022/12/04 02:10:05;;;;;;;58.38;28.60;;;3.70;52.20;;;;;;5011402;28;20625;-74
2022/12/04 02:12:42;;;;;;;51.35;27.15;;;3.80;51.30;;;;;;5010737;28;20381;-74
2022/12/04 02:15:33;;;;;;;51.25;26.38;;;3.80;49.70;;;;;;5011320;28;20393;-74
2022/12/04 02:18:01;;;;;;;54.70;27.35;;;3.70;50.60;;;;;;5011612;28;20381;-76
2022/12/04 02:20:32;;;;;;;53.38;27.27;;;3.60;51.00;;;;;;5011355;28;20389;-73
2022/12/04 02:23:19;;;;;;;56.77;27.40;;;3.60;51.70;;;;;;5010287;28;20505;-75
2022/12/04 02:26:15;;;;;;;53.83;28.50;;;3.60;51.90;;;;;;5011188;28;20385;-75
2022/12/04 02:28:54;;;;;;;55.08;28.55;;;3.60;51.90;;;;;;5011166;28;20380;-75
2022/12/04 02:31:25;;;;;;;60.20;28.55;;;3.60;51.70;;;;;;5010253;28;20873;-75
2022/12/04 02:34:00;;;;;;;56.85;28.63;;;3.60;51.20;;;;;;5011523;28;20834;-74
2022/12/04 02:36:30;;;;;;;54.63;27.48;;;3.60;51.60;;;;;;5010874;28;20388;-75
2022/12/04 02:39:48;;;;;;;57.28;29.02;;;3.60;52.30;;;;;;5010987;28;20380;-74
2022/12/04 02:42:20;;;;;;;59.50;28.60;;;3.60;52.50;;;;;;5001286;28;20397;-75
2022/12/04 02:44:48;;;;;;;58.30;28.25;;;3.60;52.10;;;;;;5015590;28;20503;-75
2022/12/04 02:47:18;;;;;;;58.80;29.75;;;3.60;53.30;;;;;;5014827;28;20514;-75
2022/12/04 02:49:48;;;;;;;54.65;28.58;;;3.50;54.30;;;;;;5015021;28;20384;-75
2022/12/04 02:52:19;;;;;;;57.75;28.60;;;3.60;53.00;;;;;;5014461;28;20467;-75
2022/12/04 02:54:50;;;;;;;56.63;28.33;;;3.60;51.70;;;;;;5015249;28;20381;-75
2022/12/04 02:57:21;;;;;;;61.58;29.40;;;3.60;51.80;;;;;;5018466;28;20393;-74
2022/12/04 02:59:49;;;;;;;55.40;28.15;;;3.60;51.90;;;;;;5038968;23;20471;-76
2022/12/04 03:02:33;;;;;;;57.20;28.80;;;3.50;53.10;;;;;;5027263;28;20393;-76
2022/12/04 03:05:04;;;;;;;59.85;29.90;;;3.50;52.80;;;;;;5016846;28;20419;-77
2022/12/04 03:07:36;;;;;;;59.20;29.00;;;3.50;53.70;;;;;;5017005;28;20388;-75
2022/12/04 03:10:09;;;;;;;56.22;28.88;;;3.50;53.40;;;;;;5016147;28;20379;-76
2022/12/04 03:12:37;;;;;;;56.05;30.13;;;3.50;54.30;;;;;;5016111;28;20390;-76
2022/12/04 03:15:09;;;;;;;57.33;29.20;;;3.60;54.90;;;;;;5016755;28;20810;-76
2022/12/04 03:17:54;;;;;;;58.90;28.65;;;3.60;53.80;;;;;;5017167;28;20715;-76
2022/12/04 03:20:20;;;;;;;56.65;28.60;;;3.50;54.70;;;;;;5020989;28;20450;-76
2022/12/04 03:22:53;;;;;;;57.00;29.55;;;3.50;53.30;;;;;;5023575;28;20400;-74
2022/12/04 03:25:22;;;;;;;56.00;28.65;;;3.50;53.60;;;;;;5023991;28;20400;-73
2022/12/04 03:27:59;;;;;;;53.42;27.77;;;3.50;54.20;;;;;;5027486;28;20377;-75
2022/12/04 03:30:24;;;;;;;56.38;28.83;;;3.60;54.10;;;;;;5018120;28;20385;-77
2022/12/04 03:32:56;;;;;;;55.50;28.83;;;3.60;52.90;;;;;;5017080;28;20446;-76
2022/12/04 03:35:54;;;;;;;55.83;28.13;;;3.60;52.80;;;;;;5017352;28;20380;-76
2022/12/04 03:38:34;;;;;;;54.33;28.03;;;3.50;53.60;;;;;;5017607;28;20459;-76
2022/12/04 03:41:13;;;;;;;56.30;28.20;;;3.50;54.20;;;;;;5024742;28;20408;-78
2022/12/04 03:43:45;;;;;;;52.22;27.67;;;3.50;54.10;;;;;;5023241;28;20816;-76
2022/12/04 03:46:39;;;;;;;55.17;29.25;;;3.60;53.70;;;;;;5024048;28;20419;-76
2022/12/04 03:49:20;;;;;;;54.80;29.08;;;3.50;56.20;;;;;;5022545;28;20865;-76
2022/12/04 03:52:02;;;;;;;57.70;30.17;;;3.40;56.90;;;;;;5013953;28;20432;-76
2022/12/04 03:54:31;;;;;;;54.10;28.00;;;3.40;59.70;;;;;;5016069;28;20381;-76
2022/12/04 03:57:10;;;;;;;51.55;26.92;;;3.40;56.70;;;;;;5025105;28;20389;-77
2022/12/04 03:59:41;;;;;;;51.38;26.70;;;3.40;57.00;;;;;;5034559;28;20424;-77
2022/12/04 04:02:11;;;;;;;55.78;29.25;;;3.30;57.10;;;;;;5030483;28;20432;-77
2022/12/04 04:04:39;;;;;;;54.87;28.47;;;3.20;58.70;;;;;;5037092;28;20389;-77
2022/12/04 04:07:23;;;;;;;54.13;27.80;;;3.30;60.90;;;;;;5033828;28;20377;-77
2022/12/04 04:09:52;;;;;;;52.17;26.92;;;3.30;59.60;;;;;;5019974;28;20391;-77
2022/12/04 04:12:22;;;;;;;52.90;27.50;;;3.30;57.10;;;;;;5017418;28;20381;-76
2022/12/04 04:26:14;;;;;;;48.77;25.97;;;3.20;63.00;;;;;;5015170;28;20424;-78
2022/12/04 04:28:41;;;;;;;48.72;25.55;;;3.30;60.10;;;;;;5016433;28;20384;-76
2022/12/04 04:31:16;;;;;;;51.33;26.55;;;3.30;58.70;;;;;;5013615;28;20495;-77
2022/12/04 04:34:04;;;;;;;47.40;25.88;;;3.40;58.00;;;;;;5014513;28;20389;-77
2022/12/04 04:36:42;;;;;;;47.80;25.83;;;3.40;57.10;;;;;;5030352;28;20393;-77
2022/12/04 04:39:13;;;;;;;49.10;25.80;;;3.40;58.60;;;;;;5013437;28;20478;-78
2022/12/04 04:41:58;;;;;;;51.15;26.95;;;3.30;57.60;;;;;;5014325;28;20381;-75
2022/12/04 04:44:32;;;;;;;50.03;25.30;;;3.20;60.60;;;;;;5015133;28;20886;-77
2022/12/04 04:47:04;;;;;;;50.33;26.10;;;3.30;56.50;;;;;;5014599;28;20397;-77
2022/12/04 04:49:32;;;;;;;53.38;26.58;;;3.30;58.20;;;;;;5029719;28;20515;-75
2022/12/04 04:52:00;;;;;;;50.88;27.75;;;3.40;61.80;;;;;;5013374;28;20380;-76
2022/12/04 04:54:28;;;;;;;51.35;27.35;;;3.30;59.00;;;;;;5013237;28;20393;-77
2022/12/04 04:56:53;;;;;;;47.92;26.20;;;3.30;62.70;;;;;;5014436;28;20400;-77
2022/12/04 04:59:19;;;;;;;48.77;25.60;;;3.40;61.20;;;;;;5015377;28;20957;-77
2022/12/04 05:01:45;;;;;;;48.73;25.37;;;3.30;58.40;;;;;;5014818;28;20399;-76
2022/12/04 05:04:11;;;;;;;46.35;25.70;;;3.20;58.10;;;;;;5014288;28;20407;-78
2022/12/04 05:06:37;;;;;;;50.70;26.67;;;3.20;59.40;;;;;;5015574;28;20393;-77
2022/12/04 05:09:03;;;;;;;46.47;24.15;;;3.20;58.10;;;;;;5016555;28;20399;-76
2022/12/04 05:11:29;;;;;;;47.28;25.67;;;3.30;61.20;;;;;;5014206;28;20416;-76
2022/12/04 05:13:54;;;;;;;46.78;25.40;;;3.20;59.70;;;;;;5013766;28;20859;-76
2022/12/04 05:16:20;;;;;;;47.27;25.20;;;3.00;61.00;;;;;;5013640;28;20442;-77
2022/12/04 05:19:52;;;;;;;45.60;24.00;;;2.80;62.00;;;;;;5013809;28;20397;-76
2022/12/04 05:21:32;;;;;;;47.70;24.95;;;2.70;61.60;;;;;;5012846;28;20401;-77
2022/12/04 05:23:58;;;;;;;41.33;23.13;;;2.70;60.30;;;;;;5014273;28;20777;-77
2022/12/04 05:26:23;;;;;;;45.10;24.13;;;2.60;59.60;;;;;;5014680;28;20419;-77
2022/12/04 05:28:49;;;;;;;44.13;24.20;;;2.60;60.60;;;;;;5013894;28;20424;-74
2022/12/04 05:31:15;;;;;;;50.50;24.05;;;2.40;62.00;;;;;;5013117;28;20491;-77
2022/12/04 05:33:41;;;;;;;45.20;24.02;;;2.20;65.10;;;;;;5013990;28;20431;-77
2022/12/04 05:36:08;;;;;;;46.27;25.10;;;2.10;65.50;;;;;;5014008;28;20391;-77
2022/12/04 05:38:34;;;;;;;48.60;25.10;;;2.10;69.50;;;;;;5013230;28;20468;-76
2022/12/04 05:41:01;;;;;;;47.10;24.00;;;2.10;72.20;;;;;;5013107;28;20393;-77
2022/12/04 05:43:27;;;;;;;45.30;24.40;;;1.90;73.70;;;;;;5013395;28;20401;-77
2022/12/04 05:45:53;;;;;;;41.25;22.40;;;1.90;71.50;;;;;;5013475;28;20462;-76
2022/12/04 05:48:19;;;;;;;42.15;22.70;;;1.80;71.60;;;;;;5028222;28;20881;-77
2022/12/04 05:50:45;;;;;;;38.92;21.85;;;1.80;70.80;;;;;;5013914;28;20394;-77
2022/12/04 05:53:11;;;;;;;42.70;22.63;;;1.70;69.90;;;;;;5013340;28;20389;-77
2022/12/04 05:55:36;;;;;;;42.10;22.08;;;1.50;70.90;;;;;;5013434;28;20396;-77
2022/12/04 05:58:03;;;;;;;44.13;22.10;;;1.50;72.30;;;;;;5012869;28;20947;-75
2022/12/04 06:00:30;;;;;;;41.00;21.52;;;1.30;72.40;;;;;;5027567;28;20461;-77
2022/12/04 06:02:56;;;;;;;42.75;21.50;;;1.40;70.70;;;;;;5012150;28;20758;-77
2022/12/04 06:05:22;;;;;;;43.07;21.70;;;1.40;70.80;;;;;;5012857;28;20491;-76
2022/12/04 06:07:47;;;;;;;37.95;20.80;;;1.50;69.20;;;;;;5013542;28;20384;-78
2022/12/04 06:10:13;;;;;;;38.58;20.77;;;1.50;70.30;;;;;;5012666;28;20385;-76
2022/12/04 06:12:38;;;;;;;40.83;21.67;;;1.40;69.00;;;;;;5012889;28;20395;-76
2022/12/04 06:15:04;;;;;;;42.30;21.55;;;1.40;70.50;;;;;;5012696;28;20423;-77
2022/12/04 06:17:30;;;;;;;40.95;20.88;;;1.40;71.90;;;;;;5013207;28;20392;-77
2022/12/04 06:19:55;;;;;;;41.03;21.67;;;1.40;70.70;;;;;;5012637;28;20467;-76
2022/12/04 06:22:21;;;;;;;36.65;20.45;;;1.30;71.70;;;;;;5011267;28;20400;-76
2022/12/04 06:24:46;;;;;;;38.03;20.40;;;1.40;71.30;;;;;;5013064;28;20719;-76
2022/12/04 06:27:12;;;;;;;40.23;20.70;;;1.50;70.90;;;;;;5013214;28;20862;-76
2022/12/04 06:29:38;;;;;;;36.00;19.70;;;1.50;69.30;;;;;;5011694;28;20392;-76
2022/12/04 06:32:03;;;;;;;37.88;20.20;;;1.50;69.20;;;;;;5014577;28;20444;-76
2022/12/04 06:34:29;;;;;;;38.70;20.05;;;1.40;70.00;;;;;;5016400;28;20454;-75
2022/12/04 06:36:54;;;;;;;38.53;20.47;;;1.60;70.00;;;;;;5015088;28;20388;-76
2022/12/04 06:39:20;;;;;;;40.27;20.20;;;1.50;69.80;;;;;;5023581;28;20393;-76
2022/12/04 06:41:46;;;;;;;36.90;20.57;;;1.70;67.80;;;;;;5021527;28;20396;-75
2022/12/04 06:44:13;;;;;;;37.20;19.40;;;1.70;67.10;;;;;;5017937;28;20419;-74
2022/12/04 06:46:38;;;;;;;37.35;20.88;;;1.80;68.30;;;;;;5019211;28;20729;-76
2022/12/04 06:49:04;;;;;;;37.17;20.43;;;1.90;67.40;;;;;;5020942;28;20401;-76
2022/12/04 06:51:32;;;;;;;39.22;21.30;;;2.00;67.70;;;;;;5021646;28;20396;-75
2022/12/04 06:53:59;;;;;;;37.72;20.55;;;2.10;66.50;;;;;;5021148;28;20935;-76
2022/12/04 06:56:27;;;;;;;42.45;21.30;;;2.10;66.90;;;;;;5023243;28;20417;-76
2022/12/04 06:58:54;;;;;;;37.78;20.27;;;2.10;67.10;;;;;;5022439;28;20904;-78
2022/12/04 07:01:22;;;;;;;34.00;19.13;;;2.20;65.90;;;;;;5027677;28;20905;-74
2022/12/04 07:03:49;;;;;;;35.65;19.58;;;2.20;66.00;;;;;;5028817;28;20956;-76
2022/12/04 07:06:16;;;;;;;38.55;20.80;;;2.30;67.30;;;;;;5028805;28;20385;-76
2022/12/04 07:08:43;;;;;;;37.60;20.25;;;2.30;68.50;;;;;;5012974;28;20385;-75
2022/12/04 07:11:09;;;;;;;36.42;19.77;;;2.40;66.90;;;;;;5012241;28;20472;-76
2022/12/04 07:13:35;;;;;;;36.40;20.13;;;2.50;65.20;;;;;;5027899;28;20397;-77
2022/12/04 07:16:02;;;;;;;36.57;20.47;;;2.50;65.90;;;;;;5012274;28;20392;-77
2022/12/04 07:18:29;;;;;;;35.22;19.27;;;2.70;64.90;;;;;;5027379;28;21011;-77
2022/12/04 07:20:54;;;;;;;34.50;19.40;;;2.90;60.50;;;;;;5011970;28;20485;-76
2022/12/04 07:23:20;;;;;;;43.42;24.48;;;3.00;58.40;;;;;;5012209;28;20881;-76
2022/12/04 07:25:46;;;;;;;37.67;22.27;;;3.00;58.00;;;;;;5012395;28;20385;-78
2022/12/04 07:28:11;;;;;;;31.73;18.30;;;3.10;57.00;;;;;;5014605;28;20389;-76
2022/12/04 07:30:37;;;;;;;37.00;21.00;;;3.20;56.50;;;;;;5016821;28;20478;-76
2022/12/04 07:33:03;;;;;;;31.13;20.07;;;3.20;58.10;;;;;;5016494;28;20396;-77
2022/12/04 07:35:29;;;;;;;36.05;22.80;;;3.20;57.30;;;;;;5016353;28;20435;-77
2022/12/04 07:37:55;;;;;;;32.30;19.90;;;3.20;58.60;;;;;;5014772;28;20415;-76
2022/12/04 07:40:21;;;;;;;34.35;20.38;;;3.00;57.80;;;;;;5015931;28;20404;-77
2022/12/04 07:42:46;;;;;;;31.45;19.83;;;3.00;58.70;;;;;;5014914;28;20870;-76
2022/12/04 07:45:12;;;;;;;34.27;21.77;;;2.90;60.50;;;;;;5015771;28;20416;-77
2022/12/04 07:47:37;;;;;;;23.30;14.10;;;3.00;59.30;;;;;;5016221;28;20428;-76
2022/12/04 07:50:04;;;;;;;25.73;15.20;;;3.20;53.20;;;;;;5015220;28;20858;-76
2022/12/04 07:52:34;;;;;;;25.65;15.95;;;3.30;51.80;;;;;;5016649;28;20385;-77
2022/12/04 07:54:59;;;;;;;28.70;17.13;;;3.40;53.80;;;;;;5017406;28;20762;-77
2022/12/04 07:57:26;;;;;;;23.10;15.17;;;3.40;54.60;;;;;;5016586;28;20494;-76
2022/12/04 07:59:52;;;;;;;24.88;15.50;;;3.40;51.70;;;;;;5017627;28;20916;-75
2022/12/04 08:02:19;;;;;;;25.92;15.50;;;3.40;51.30;;;;;;5016631;28;20400;-77
2022/12/04 08:04:45;;;;;;;23.38;14.15;;;3.30;52.70;;;;;;5017718;28;20837;-77
2022/12/04 08:07:10;;;;;;;23.05;14.15;;;3.50;52.90;;;;;;5017678;28;20381;-78
2022/12/04 08:09:36;;;;;;;23.67;15.40;;;3.60;51.80;;;;;;5025814;28;20389;-77
2022/12/04 08:12:02;;;;;;;23.37;14.90;;;3.50;53.00;;;;;;5028120;28;20396;-75
2022/12/04 08:14:27;;;;;;;24.65;15.50;;;3.50;53.30;;;;;;5030185;28;20393;-77
2022/12/04 08:16:53;;;;;;;20.63;13.95;;;3.50;52.20;;;;;;5028415;28;20898;-77
2022/12/04 08:19:19;;;;;;;24.45;14.88;;;3.40;52.80;;;;;;5014600;28;20893;-76
2022/12/04 08:21:45;;;;;;;20.55;14.00;;;3.40;51.10;;;;;;5015131;28;20393;-76
2022/12/04 08:24:10;;;;;;;24.93;13.97;;;3.50;50.50;;;;;;5014947;28;21009;-77
2022/12/04 08:26:36;;;;;;;25.80;15.77;;;3.60;50.60;;;;;;5016103;28;20904;-76
2022/12/04 08:29:02;;;;;;;28.05;19.13;;;3.70;49.40;;;;;;5015670;28;20900;-76
2022/12/04 08:31:29;;;;;;;25.25;15.00;;;3.60;50.10;;;;;;5016342;28;20468;-77
2022/12/04 08:33:57;;;;;;;27.77;14.40;;;3.60;48.40;;;;;;5014974;28;20475;-77
2022/12/04 08:36:24;;;;;;;22.98;14.80;;;3.60;49.40;;;;;;5015848;28;20428;-77
2022/12/04 08:38:49;;;;;;;21.25;13.43;;;3.70;51.60;;;;;;5021053;28;20443;-76
2022/12/04 08:41:17;;;;;;;21.75;13.73;;;3.70;50.40;;;;;;5020387;28;20389;-77
2022/12/04 08:43:43;;;;;;;21.20;13.70;;;3.60;51.20;;;;;;5022960;28;20425;-77
2022/12/04 08:46:11;;;;;;;21.08;13.90;;;3.50;51.70;;;;;;5038159;28;20472;-77
2022/12/04 08:48:37;;;;;;;20.87;13.27;;;3.50;51.80;;;;;;5016431;28;20373;-75
2022/12/04 08:51:03;;;;;;;19.85;13.63;;;3.70;49.30;;;;;;5017874;28;20387;-76
2022/12/04 08:53:30;;;;;;;17.65;12.30;;;3.80;47.70;;;;;;5019895;28;20475;-75
2022/12/04 08:55:56;;;;;;;18.38;12.68;;;3.80;45.90;;;;;;5022347;28;20425;-77
2022/12/04 08:58:22;;;;;;;19.40;13.20;;;3.70;47.70;;;;;;5034683;23;20874;-73
2022/12/04 09:00:48;;;;;;;21.50;14.00;;;3.70;48.90;;;;;;5043643;28;20421;-74
2022/12/04 09:03:18;;;;;;;19.47;13.57;;;3.70;48.70;;;;;;5012532;28;20412;-73
2022/12/04 09:05:44;;;;;;;21.95;13.35;;;3.70;48.70;;;;;;5013160;28;20389;-73
2022/12/04 09:08:11;;;;;;;22.90;14.55;;;3.70;50.70;;;;;;5015042;28;20389;-73
2022/12/04 09:10:38;;;;;;;20.25;13.20;;;3.70;50.30;;;;;;5015764;28;20381;-74
2022/12/04 09:13:03;;;;;;;23.00;13.85;;;3.70;50.90;;;;;;5012331;28;20381;-73
2022/12/04 09:15:29;;;;;;;21.38;13.65;;;3.90;48.70;;;;;;5013213;28;20533;-73
2022/12/04 09:17:55;;;;;;;19.73;12.90;;;4.00;47.50;;;;;;5012982;28;20381;-73
2022/12/04 09:20:20;;;;;;;19.33;12.80;;;3.90;44.90;;;;;;5012482;28;20389;-74
2022/12/04 09:22:46;;;;;;;19.40;12.95;;;3.80;45.10;;;;;;5026999;28;20528;-72
2022/12/04 09:25:11;;;;;;;19.65;12.95;;;3.90;47.40;;;;;;5012489;28;20511;-73
2022/12/04 09:27:40;;;;;;;17.83;12.65;;;4.10;45.80;;;;;;5013214;28;20389;-74
2022/12/04 09:30:08;;;;;;;18.98;12.35;;;4.30;42.70;;;;;;5014478;28;20384;-73
2022/12/04 09:32:33;;;;;;;18.67;12.77;;;4.30;43.40;;;;;;5011733;28;20395;-73
2022/12/04 09:34:59;;;;;;;18.27;12.68;;;4.30;43.90;;;;;;5012453;28;20866;-74
2022/12/04 09:37:24;;;;;;;20.38;13.20;;;4.30;43.70;;;;;;5012503;28;20427;-74
2022/12/04 09:39:50;;;;;;;20.83;13.17;;;4.10;42.60;;;;;;5012325;28;20873;-73
2022/12/04 09:42:41;;;;;;;20.27;13.43;;;4.00;44.40;;;;;;5011279;28;20424;-73
2022/12/04 09:45:15;;;;;;;18.45;13.30;;;4.10;44.30;;;;;;5012237;28;20445;-74
2022/12/04 09:47:47;;;;;;;17.80;12.23;;;4.30;43.20;;;;;;5012191;28;20385;-74
2022/12/04 09:50:24;;;;;;;20.27;13.52;;;4.50;41.80;;;;;;5011027;28;20400;-73
2022/12/04 09:52:57;;;;;;;21.67;13.68;;;4.40;41.00;;;;;;5011503;28;20395;-74
2022/12/04 09:55:29;;;;;;;21.02;14.00;;;4.30;42.60;;;;;;5012226;28;20412;-73
2022/12/04 09:57:58;;;;;;;19.90;13.15;;;4.00;43.20;;;;;;5012289;28;20385;-73
2022/12/04 10:00:25;;;;;;;20.40;13.73;;;4.00;42.60;;;;;;5012042;28;20423;-74
2022/12/04 10:03:02;;;;;;;21.40;13.18;;;3.90;43.80;;;;;;5011645;28;20592;-73
2022/12/04 10:05:49;;;;;;;20.45;13.50;;;3.90;44.60;;;;;;5011623;28;20403;-74
2022/12/04 10:08:33;;;;;;;24.83;14.53;;;3.90;44.60;;;;;;5011915;28;20700;-74
2022/12/04 10:11:10;;;;;;;23.63;13.77;;;4.10;45.90;;;;;;5011739;28;20385;-72
2022/12/04 10:14:24;;;;;;;22.27;14.40;;;4.30;43.20;;;;;;5010363;28;20400;-73
2022/12/04 10:16:58;;;;;;;22.33;14.60;;;4.10;43.10;;;;;;4995159;28;20392;-74
2022/12/04 10:19:42;;;;;;;22.15;13.93;;;4.00;44.00;;;;;;5010246;28;20884;-73
2022/12/04 10:22:31;;;;;;;22.63;13.60;;;4.10;43.60;;;;;;5011421;28;20761;-75
2022/12/04 10:25:05;;;;;;;19.88;13.60;;;4.10;43.10;;;;;;5011728;28;20405;-73
2022/12/04 10:27:43;;;;;;;21.17;13.85;;;4.10;44.90;;;;;;5011631;28;20731;-74
2022/12/04 10:30:25;;;;;;;21.60;14.70;;;4.40;41.40;;;;;;5011406;28;20384;-72
2022/12/04 10:33:00;;;;;;;21.38;14.15;;;4.40;41.70;;;;;;5010362;28;20389;-74
2022/12/04 10:35:31;;;;;;;20.98;13.45;;;4.60;41.30;;;;;;5012035;28;20419;-73
2022/12/04 10:38:02;;;;;;;21.58;13.30;;;4.80;39.20;;;;;;5010540;28;20428;-74
2022/12/04 10:40:40;;;;;;;25.55;15.38;;;4.80;37.90;;;;;;5011686;28;20447;-74
2022/12/04 10:43:56;;;;;;;22.20;14.30;;;4.80;40.30;;;;;;5011120;28;20376;-74
2022/12/04 10:46:25;;;;;;;22.40;14.60;;;4.80;40.30;;;;;;5006771;28;20481;-73
2022/12/04 10:48:59;;;;;;;22.33;13.95;;;4.80;41.20;;;;;;5011126;28;20438;-72
2022/12/04 10:51:24;;;;;;;21.73;14.25;;;4.60;39.40;;;;;;5010655;28;20455;-75
2022/12/04 10:53:50;;;;;;;23.10;14.90;;;4.70;38.90;;;;;;5012220;28;20907;-73
2022/12/04 10:56:19;;;;;;;22.05;14.68;;;4.80;39.60;;;;;;5027001;28;20396;-73
2022/12/04 10:58:58;;;;;;;24.38;14.95;;;4.70;39.50;;;;;;5011122;28;20480;-72
2022/12/04 11:01:24;;;;;;;23.25;15.23;;;4.90;39.60;;;;;;5010680;28;20937;-74
2022/12/04 11:04:07;;;;;;;21.20;14.00;;;5.00;38.60;;;;;;5014918;28;20533;-73
2022/12/04 11:06:34;;;;;;;23.75;14.20;;;4.90;38.60;;;;;;5015524;28;20459;-73
2022/12/04 11:09:01;;;;;;;21.77;13.63;;;5.00;36.30;;;;;;5015434;28;20434;-73
2022/12/04 11:11:32;;;;;;;20.08;13.15;;;4.90;35.70;;;;;;5016207;28;20393;-73
2022/12/04 11:14:13;;;;;;;23.27;14.90;;;4.90;37.10;;;;;;5021289;28;20385;-73
2022/12/04 11:16:44;;;;;;;23.45;14.05;;;4.90;38.20;;;;;;5026979;28;20392;-73
2022/12/04 11:19:36;;;;;;;27.92;13.68;;;4.90;37.60;;;;;;5020233;28;20413;-74
2022/12/04 11:22:14;;;;;;;28.02;14.57;;;4.80;35.80;;;;;;5013451;28;20404;-74
2022/12/04 11:24:41;;;;;;;22.52;14.25;;;4.80;38.50;;;;;;5015010;28;20411;-73
2022/12/04 11:27:18;;;;;;;22.83;14.25;;;4.90;39.70;;;;;;5030078;28;20428;-73
2022/12/04 11:29:45;;;;;;;23.30;14.67;;;4.80;39.30;;;;;;5014805;28;20476;-73
2022/12/04 11:32:32;;;;;;;23.53;14.70;;;4.80;38.20;;;;;;5014340;28;20461;-71
2022/12/04 11:35:10;;;;;;;26.92;15.43;;;4.90;39.60;;;;;;5014574;28;20387;-72
2022/12/04 11:37:36;;;;;;;26.17;16.77;;;4.80;40.70;;;;;;5015133;28;20394;-73
2022/12/04 11:40:05;;;;;;;29.80;16.60;;;4.70;38.60;;;;;;5015044;28;20397;-72
2022/12/04 11:42:32;;;;;;;23.30;15.60;;;4.60;40.20;;;;;;5014013;28;20385;-72
2022/12/04 11:45:00;;;;;;;24.80;16.17;;;4.60;40.80;;;;;;5014127;28;20492;-73
2022/12/04 11:47:29;;;;;;;24.98;15.93;;;4.50;41.10;;;;;;5014566;28;20380;-73
2022/12/04 11:50:02;;;;;;;24.92;14.98;;;4.40;41.10;;;;;;5014454;28;20396;-73
2022/12/04 11:52:54;;;;;;;25.60;17.00;;;4.50;41.10;;;;;;5013676;28;20460;-73
2022/12/04 11:55:28;;;;;;;24.95;17.15;;;4.40;41.90;;;;;;5014700;28;20876;-74
2022/12/04 11:58:45;;;;;;;27.15;18.40;;;4.60;41.30;;;;;;5014356;28;20381;-73
2022/12/04 12:01:31;;;;;;;27.13;17.10;;;4.60;43.00;;;;;;5001584;28;20482;-75
2022/12/04 12:04:15;;;;;;;25.70;16.85;;;4.70;42.50;;;;;;5012946;28;20936;-73
2022/12/04 12:06:59;;;;;;;24.70;16.60;;;4.80;40.40;;;;;;5014496;28;20798;-73
2022/12/04 12:09:47;;;;;;;27.25;16.95;;;4.80;40.80;;;;;;5013354;28;20920;-73
2022/12/04 12:12:34;;;;;;;27.85;17.80;;;4.80;41.50;;;;;;5013930;28;20428;-73
2022/12/04 12:15:30;;;;;;;28.70;16.38;;;4.80;39.20;;;;;;5021395;28;20862;-73
2022/12/04 12:18:14;;;;;;;25.73;16.70;;;5.00;39.40;;;;;;5024422;28;20383;-73
2022/12/04 12:20:41;;;;;;;25.20;16.60;;;4.90;40.30;;;;;;5020106;28;20392;-73
2022/12/04 12:23:25;;;;;;;28.17;18.35;;;5.00;38.00;;;;;;5022015;28;20381;-73
2022/12/04 12:25:56;;;;;;;26.65;17.70;;;4.90;39.20;;;;;;5018588;28;20391;-74
2022/12/04 12:28:25;;;;;;;25.73;16.88;;;4.90;40.10;;;;;;5017694;28;20739;-74
2022/12/04 12:30:59;;;;;;;26.08;16.80;;;5.00;39.90;;;;;;5017876;28;20376;-74
2022/12/04 12:33:31;;;;;;;25.00;16.10;;;5.00;39.60;;;;;;5015291;28;20396;-74
2022/12/04 12:36:02;;;;;;;26.00;16.10;;;5.20;37.90;;;;;;5018708;28;20412;-74
2022/12/04 12:38:34;;;;;;;24.67;15.93;;;5.10;39.10;;;;;;5014263;28;20549;-73
2022/12/04 12:41:23;;;;;;;24.58;14.75;;;5.00;40.20;;;;;;5013854;28;20389;-74
2022/12/04 12:43:59;;;;;;;23.67;14.95;;;5.00;40.00;;;;;;5014385;28;20916;-73
2022/12/04 12:46:36;;;;;;;22.80;15.43;;;5.00;40.50;;;;;;5014342;28;20403;-76
2022/12/04 12:49:04;;;;;;;23.27;15.18;;;5.00;38.40;;;;;;5015751;28;20435;-73
2022/12/04 12:51:37;;;;;;;25.00;16.30;;;4.90;39.40;;;;;;5021229;28;20718;-73
2022/12/04 12:54:39;;;;;;;23.15;15.40;;;4.80;40.80;;;;;;5019135;28;20455;-73
2022/12/04 12:57:22;;;;;;;29.17;16.13;;;4.90;40.30;;;;;;5014044;28;20458;-73
2022/12/04 12:59:56;;;;;;;26.40;16.17;;;4.80;39.50;;;;;;5013355;28;20466;-73
2022/12/04 13:02:28;;;;;;;27.50;16.80;;;4.60;42.40;;;;;;5012608;28;20404;-74
2022/12/04 13:05:03;;;;;;;24.90;15.98;;;4.70;40.40;;;;;;5012852;28;20408;-73
2022/12/04 13:07:32;;;;;;;28.73;16.00;;;4.90;39.00;;;;;;5013098;28;20389;-71